sensor_id;sensor_type;location;lat;lon;timestamp;temperature;humidity
12704;DHT22;6416;52.182;7.650;2023-01-29T00:02:05;5.60;67.50
12704;DHT22;6416;52.182;7.650;2023-01-29T00:04:31;5.60;67.50
12704;DHT22;6416;52.182;7.650;2023-01-29T00:06:57;5.60;67.50
12704;DHT22;6416;52.182;7.650;2023-01-29T00:09:22;5.60;67.50
12704;DHT22;6416;52.182;7.650;2023-01-29T00:11:48;5.60;67.50
12704;DHT22;6416;52.182;7.650;2023-01-29T00:14:13;5.60;67.40
12704;DHT22;6416;52.182;7.650;2023-01-29T00:16:39;5.60;67.10
12704;DHT22;6416;52.182;7.650;2023-01-29T00:19:04;5.60;67.10
12704;DHT22;6416;52.182;7.650;2023-01-29T00:21:30;5.60;67.20
12704;DHT22;6416;52.182;7.650;2023-01-29T00:23:56;5.60;67.20
12704;DHT22;6416;52.182;7.650;2023-01-29T00:26:22;5.60;67.30
12704;DHT22;6416;52.182;7.650;2023-01-29T00:28:47;5.50;67.40
12704;DHT22;6416;52.182;7.650;2023-01-29T00:31:22;5.50;67.60
12704;DHT22;6416;52.182;7.650;2023-01-29T00:33:49;5.50;67.40
12704;DHT22;6416;52.182;7.650;2023-01-29T00:36:16;5.50;67.70
12704;DHT22;6416;52.182;7.650;2023-01-29T00:38:42;5.50;67.80
12704;DHT22;6416;52.182;7.650;2023-01-29T00:41:10;5.50;67.90
12704;DHT22;6416;52.182;7.650;2023-01-29T00:43:35;5.50;67.80
12704;DHT22;6416;52.182;7.650;2023-01-29T00:46:01;5.50;68.00
12704;DHT22;6416;52.182;7.650;2023-01-29T00:48:26;5.50;68.00
12704;DHT22;6416;52.182;7.650;2023-01-29T00:50:52;5.50;68.10
12704;DHT22;6416;52.182;7.650;2023-01-29T00:53:17;5.50;68.00
12704;DHT22;6416;52.182;7.650;2023-01-29T00:55:43;5.60;68.10
12704;DHT22;6416;52.182;7.650;2023-01-29T00:58:09;5.50;67.90
12704;DHT22;6416;52.182;7.650;2023-01-29T01:00:34;5.50;67.90
12704;DHT22;6416;52.182;7.650;2023-01-29T01:03:00;5.50;67.70
12704;DHT22;6416;52.182;7.650;2023-01-29T01:05:26;5.50;67.70
12704;DHT22;6416;52.182;7.650;2023-01-29T01:07:54;5.50;67.80
12704;DHT22;6416;52.182;7.650;2023-01-29T01:10:28;5.50;67.90
12704;DHT22;6416;52.182;7.650;2023-01-29T01:13:00;5.50;67.70
12704;DHT22;6416;52.182;7.650;2023-01-29T01:15:28;5.50;67.90
12704;DHT22;6416;52.182;7.650;2023-01-29T01:17:56;5.50;68.00
12704;DHT22;6416;52.182;7.650;2023-01-29T01:20:22;5.50;68.00
12704;DHT22;6416;52.182;7.650;2023-01-29T01:22:48;5.50;68.00
12704;DHT22;6416;52.182;7.650;2023-01-29T01:25:14;5.50;68.00
12704;DHT22;6416;52.182;7.650;2023-01-29T01:27:39;5.50;68.00
12704;DHT22;6416;52.182;7.650;2023-01-29T01:30:07;5.50;68.10
12704;DHT22;6416;52.182;7.650;2023-01-29T01:32:32;5.50;68.20
12704;DHT22;6416;52.182;7.650;2023-01-29T01:34:58;5.50;68.30
12704;DHT22;6416;52.182;7.650;2023-01-29T01:37:23;5.50;68.30
12704;DHT22;6416;52.182;7.650;2023-01-29T01:39:49;5.50;68.10
12704;DHT22;6416;52.182;7.650;2023-01-29T01:42:14;5.50;68.20
12704;DHT22;6416;52.182;7.650;2023-01-29T01:44:50;5.50;68.20
12704;DHT22;6416;52.182;7.650;2023-01-29T01:47:18;5.50;67.90
12704;DHT22;6416;52.182;7.650;2023-01-29T01:49:45;5.50;68.30
12704;DHT22;6416;52.182;7.650;2023-01-29T01:52:12;5.50;68.20
12704;DHT22;6416;52.182;7.650;2023-01-29T01:54:38;5.50;68.30
12704;DHT22;6416;52.182;7.650;2023-01-29T01:57:08;5.40;68.30
12704;DHT22;6416;52.182;7.650;2023-01-29T01:59:36;5.40;68.30
12704;DHT22;6416;52.182;7.650;2023-01-29T02:02:03;5.40;68.40
12704;DHT22;6416;52.182;7.650;2023-01-29T02:04:29;5.40;68.50
12704;DHT22;6416;52.182;7.650;2023-01-29T02:06:55;5.40;68.60
12704;DHT22;6416;52.182;7.650;2023-01-29T02:09:26;5.50;68.80
12704;DHT22;6416;52.182;7.650;2023-01-29T02:11:52;5.50;68.70
12704;DHT22;6416;52.182;7.650;2023-01-29T02:14:18;5.50;68.80
12704;DHT22;6416;52.182;7.650;2023-01-29T02:16:43;5.50;68.80
12704;DHT22;6416;52.182;7.650;2023-01-29T02:19:22;5.50;68.90
12704;DHT22;6416;52.182;7.650;2023-01-29T02:33:11;5.60;68.20
12704;DHT22;6416;52.182;7.650;2023-01-29T02:35:42;5.60;68.30
12704;DHT22;6416;52.182;7.650;2023-01-29T02:44:00;5.50;68.20
12704;DHT22;6416;52.182;7.650;2023-01-29T02:46:45;5.50;68.20
12704;DHT22;6416;52.182;7.650;2023-01-29T02:52:40;5.50;68.10
12704;DHT22;6416;52.182;7.650;2023-01-29T02:55:11;5.50;68.10
12704;DHT22;6416;52.182;7.650;2023-01-29T02:57:42;5.50;68.60
12704;DHT22;6416;52.182;7.650;2023-01-29T03:00:16;5.50;68.50
12704;DHT22;6416;52.182;7.650;2023-01-29T03:03:02;5.50;68.40
12704;DHT22;6416;52.182;7.650;2023-01-29T03:05:39;5.50;68.50
12704;DHT22;6416;52.182;7.650;2023-01-29T03:08:09;5.50;68.50
12704;DHT22;6416;52.182;7.650;2023-01-29T03:10:55;5.40;68.60
12704;DHT22;6416;52.182;7.650;2023-01-29T03:16:15;5.50;68.40
12704;DHT22;6416;52.182;7.650;2023-01-29T03:18:47;5.50;68.50
12704;DHT22;6416;52.182;7.650;2023-01-29T03:21:20;5.50;68.50
12704;DHT22;6416;52.182;7.650;2023-01-29T03:23:46;5.50;68.40
12704;DHT22;6416;52.182;7.650;2023-01-29T03:26:14;5.50;68.60
12704;DHT22;6416;52.182;7.650;2023-01-29T03:28:42;5.50;68.50
12704;DHT22;6416;52.182;7.650;2023-01-29T03:31:11;5.50;68.70
12704;DHT22;6416;52.182;7.650;2023-01-29T03:36:22;5.50;68.50
12704;DHT22;6416;52.182;7.650;2023-01-29T03:38:51;5.40;68.60
12704;DHT22;6416;52.182;7.650;2023-01-29T03:41:27;5.40;68.70
12704;DHT22;6416;52.182;7.650;2023-01-29T03:44:14;5.40;68.50
12704;DHT22;6416;52.182;7.650;2023-01-29T03:46:52;5.40;68.40
12704;DHT22;6416;52.182;7.650;2023-01-29T03:49:38;5.50;68.80
12704;DHT22;6416;52.182;7.650;2023-01-29T03:52:27;5.50;68.50
12704;DHT22;6416;52.182;7.650;2023-01-29T03:57:43;5.50;68.50
12704;DHT22;6416;52.182;7.650;2023-01-29T04:00:33;5.50;68.70
12704;DHT22;6416;52.182;7.650;2023-01-29T04:05:41;5.50;68.60
12704;DHT22;6416;52.182;7.650;2023-01-29T04:08:10;5.50;68.50
12704;DHT22;6416;52.182;7.650;2023-01-29T04:10:40;5.50;68.60
12704;DHT22;6416;52.182;7.650;2023-01-29T04:13:12;5.50;68.60
12704;DHT22;6416;52.182;7.650;2023-01-29T04:15:43;5.40;68.50
12704;DHT22;6416;52.182;7.650;2023-01-29T04:18:10;5.40;68.70
12704;DHT22;6416;52.182;7.650;2023-01-29T04:20:36;5.40;68.50
12704;DHT22;6416;52.182;7.650;2023-01-29T04:23:05;5.40;68.40
12704;DHT22;6416;52.182;7.650;2023-01-29T04:25:37;5.40;68.40
12704;DHT22;6416;52.182;7.650;2023-01-29T04:30:59;5.40;68.60
12704;DHT22;6416;52.182;7.650;2023-01-29T04:33:49;5.40;68.70
12704;DHT22;6416;52.182;7.650;2023-01-29T04:36:32;5.40;68.40
12704;DHT22;6416;52.182;7.650;2023-01-29T04:39:17;5.40;68.60
12704;DHT22;6416;52.182;7.650;2023-01-29T04:41:54;5.40;69.10
12704;DHT22;6416;52.182;7.650;2023-01-29T04:44:40;5.40;69.00
12704;DHT22;6416;52.182;7.650;2023-01-29T04:49:46;5.40;69.00
12704;DHT22;6416;52.182;7.650;2023-01-29T04:52:43;5.40;68.90
12704;DHT22;6416;52.182;7.650;2023-01-29T04:55:16;5.40;69.00
12704;DHT22;6416;52.182;7.650;2023-01-29T04:58:05;5.40;69.10
12704;DHT22;6416;52.182;7.650;2023-01-29T05:00:39;5.40;68.90
12704;DHT22;6416;52.182;7.650;2023-01-29T05:03:06;5.40;69.30
12704;DHT22;6416;52.182;7.650;2023-01-29T05:05:32;5.40;69.30
12704;DHT22;6416;52.182;7.650;2023-01-29T05:07:58;5.40;69.40
12704;DHT22;6416;52.182;7.650;2023-01-29T05:10:24;5.40;70.10
12704;DHT22;6416;52.182;7.650;2023-01-29T05:12:57;5.40;69.50
12704;DHT22;6416;52.182;7.650;2023-01-29T05:15:28;5.40;69.50
12704;DHT22;6416;52.182;7.650;2023-01-29T05:17:55;5.40;69.50
12704;DHT22;6416;52.182;7.650;2023-01-29T05:20:21;5.40;69.50
12704;DHT22;6416;52.182;7.650;2023-01-29T05:22:47;5.50;69.70
12704;DHT22;6416;52.182;7.650;2023-01-29T05:25:25;5.50;69.60
12704;DHT22;6416;52.182;7.650;2023-01-29T05:27:51;5.50;69.30
12704;DHT22;6416;52.182;7.650;2023-01-29T05:30:17;5.50;69.60
12704;DHT22;6416;52.182;7.650;2023-01-29T05:32:43;5.50;69.60
12704;DHT22;6416;52.182;7.650;2023-01-29T05:35:08;5.50;69.60
12704;DHT22;6416;52.182;7.650;2023-01-29T05:37:34;5.50;69.70
12704;DHT22;6416;52.182;7.650;2023-01-29T05:39:59;5.50;69.60
12704;DHT22;6416;52.182;7.650;2023-01-29T05:42:24;5.50;69.60
12704;DHT22;6416;52.182;7.650;2023-01-29T05:44:50;5.50;69.70
12704;DHT22;6416;52.182;7.650;2023-01-29T05:47:19;5.50;69.60
12704;DHT22;6416;52.182;7.650;2023-01-29T05:49:45;5.50;69.50
12704;DHT22;6416;52.182;7.650;2023-01-29T05:52:10;5.50;69.60
12704;DHT22;6416;52.182;7.650;2023-01-29T05:54:36;5.50;69.60
12704;DHT22;6416;52.182;7.650;2023-01-29T05:57:01;5.50;69.60
12704;DHT22;6416;52.182;7.650;2023-01-29T05:59:27;5.50;69.50
12704;DHT22;6416;52.182;7.650;2023-01-29T06:01:52;5.50;69.60
12704;DHT22;6416;52.182;7.650;2023-01-29T06:04:18;5.50;69.70
12704;DHT22;6416;52.182;7.650;2023-01-29T06:06:43;5.50;69.70
12704;DHT22;6416;52.182;7.650;2023-01-29T06:09:10;5.50;69.70
12704;DHT22;6416;52.182;7.650;2023-01-29T06:11:35;5.50;69.70
12704;DHT22;6416;52.182;7.650;2023-01-29T06:14:01;5.50;69.60
12704;DHT22;6416;52.182;7.650;2023-01-29T06:16:26;5.50;69.60
12704;DHT22;6416;52.182;7.650;2023-01-29T06:18:52;5.50;69.50
12704;DHT22;6416;52.182;7.650;2023-01-29T06:21:17;5.50;69.60
12704;DHT22;6416;52.182;7.650;2023-01-29T06:23:43;5.50;69.50
12704;DHT22;6416;52.182;7.650;2023-01-29T06:26:11;5.50;69.60
12704;DHT22;6416;52.182;7.650;2023-01-29T06:28:37;5.50;69.50
12704;DHT22;6416;52.182;7.650;2023-01-29T06:31:03;5.50;69.70
12704;DHT22;6416;52.182;7.650;2023-01-29T06:33:29;5.50;69.70
12704;DHT22;6416;52.182;7.650;2023-01-29T06:35:58;5.50;69.70
12704;DHT22;6416;52.182;7.650;2023-01-29T06:38:24;5.50;69.50
12704;DHT22;6416;52.182;7.650;2023-01-29T06:40:50;5.50;69.50
12704;DHT22;6416;52.182;7.650;2023-01-29T06:43:16;5.50;69.50
12704;DHT22;6416;52.182;7.650;2023-01-29T06:45:48;5.50;69.60
12704;DHT22;6416;52.182;7.650;2023-01-29T06:48:14;5.50;69.40
12704;DHT22;6416;52.182;7.650;2023-01-29T06:50:39;5.50;69.60
12704;DHT22;6416;52.182;7.650;2023-01-29T06:53:05;5.50;69.40
12704;DHT22;6416;52.182;7.650;2023-01-29T06:55:30;5.50;69.40
12704;DHT22;6416;52.182;7.650;2023-01-29T06:57:56;5.50;69.40
12704;DHT22;6416;52.182;7.650;2023-01-29T07:00:21;5.50;69.30
12704;DHT22;6416;52.182;7.650;2023-01-29T07:02:50;5.50;70.20
12704;DHT22;6416;52.182;7.650;2023-01-29T07:05:15;5.50;69.40
12704;DHT22;6416;52.182;7.650;2023-01-29T07:07:41;5.40;69.40
12704;DHT22;6416;52.182;7.650;2023-01-29T07:10:07;5.40;69.40
12704;DHT22;6416;52.182;7.650;2023-01-29T07:12:33;5.40;69.40
12704;DHT22;6416;52.182;7.650;2023-01-29T07:14:58;5.40;69.50
12704;DHT22;6416;52.182;7.650;2023-01-29T07:17:24;5.40;69.50
12704;DHT22;6416;52.182;7.650;2023-01-29T07:19:49;5.40;69.50
12704;DHT22;6416;52.182;7.650;2023-01-29T07:22:14;5.40;69.50
12704;DHT22;6416;52.182;7.650;2023-01-29T07:24:40;5.40;69.60
12704;DHT22;6416;52.182;7.650;2023-01-29T07:27:06;5.40;69.70
12704;DHT22;6416;52.182;7.650;2023-01-29T07:29:31;5.40;69.60
12704;DHT22;6416;52.182;7.650;2023-01-29T07:31:57;5.40;69.50
12704;DHT22;6416;52.182;7.650;2023-01-29T07:34:22;5.40;69.60
12704;DHT22;6416;52.182;7.650;2023-01-29T07:36:47;5.40;69.70
12704;DHT22;6416;52.182;7.650;2023-01-29T07:39:13;5.40;69.60
12704;DHT22;6416;52.182;7.650;2023-01-29T07:41:38;5.40;69.60
12704;DHT22;6416;52.182;7.650;2023-01-29T07:44:04;5.40;69.70
12704;DHT22;6416;52.182;7.650;2023-01-29T07:46:29;5.40;69.60
12704;DHT22;6416;52.182;7.650;2023-01-29T07:48:57;5.40;69.50
12704;DHT22;6416;52.182;7.650;2023-01-29T07:51:22;5.40;69.50
12704;DHT22;6416;52.182;7.650;2023-01-29T07:53:47;5.40;69.60
12704;DHT22;6416;52.182;7.650;2023-01-29T07:56:13;5.40;69.60
12704;DHT22;6416;52.182;7.650;2023-01-29T07:58:38;5.40;69.60
12704;DHT22;6416;52.182;7.650;2023-01-29T08:01:05;5.40;69.70
12704;DHT22;6416;52.182;7.650;2023-01-29T08:03:31;5.40;69.70
12704;DHT22;6416;52.182;7.650;2023-01-29T08:05:57;5.40;69.90
12704;DHT22;6416;52.182;7.650;2023-01-29T08:08:22;5.40;69.90
12704;DHT22;6416;52.182;7.650;2023-01-29T08:10:48;5.40;69.80
12704;DHT22;6416;52.182;7.650;2023-01-29T08:13:13;5.40;69.80
12704;DHT22;6416;52.182;7.650;2023-01-29T08:15:42;5.40;69.80
12704;DHT22;6416;52.182;7.650;2023-01-29T08:18:08;5.40;69.70
12704;DHT22;6416;52.182;7.650;2023-01-29T08:20:33;5.40;69.80
12704;DHT22;6416;52.182;7.650;2023-01-29T08:23:06;5.40;69.80
12704;DHT22;6416;52.182;7.650;2023-01-29T08:25:32;5.40;69.90
12704;DHT22;6416;52.182;7.650;2023-01-29T08:27:59;5.50;70.00
12704;DHT22;6416;52.182;7.650;2023-01-29T08:30:26;5.50;70.00
12704;DHT22;6416;52.182;7.650;2023-01-29T08:32:52;5.50;70.10
12704;DHT22;6416;52.182;7.650;2023-01-29T08:35:17;5.50;70.00
12704;DHT22;6416;52.182;7.650;2023-01-29T08:37:43;5.50;70.00
12704;DHT22;6416;52.182;7.650;2023-01-29T08:40:09;5.50;70.10
12704;DHT22;6416;52.182;7.650;2023-01-29T08:42:35;5.50;70.40
12704;DHT22;6416;52.182;7.650;2023-01-29T08:45:00;5.60;70.40
12704;DHT22;6416;52.182;7.650;2023-01-29T08:47:25;5.60;70.40
12704;DHT22;6416;52.182;7.650;2023-01-29T08:49:51;5.60;70.20
12704;DHT22;6416;52.182;7.650;2023-01-29T08:52:16;5.60;70.20
12704;DHT22;6416;52.182;7.650;2023-01-29T08:54:42;5.70;70.30
12704;DHT22;6416;52.182;7.650;2023-01-29T08:57:07;5.70;70.10
12704;DHT22;6416;52.182;7.650;2023-01-29T08:59:33;5.70;70.10
12704;DHT22;6416;52.182;7.650;2023-01-29T09:01:58;5.70;70.00
12704;DHT22;6416;52.182;7.650;2023-01-29T09:04:24;5.70;70.10
12704;DHT22;6416;52.182;7.650;2023-01-29T09:06:49;5.70;70.20
12704;DHT22;6416;52.182;7.650;2023-01-29T09:09:15;5.70;70.40
12704;DHT22;6416;52.182;7.650;2023-01-29T09:11:40;5.80;70.50
12704;DHT22;6416;52.182;7.650;2023-01-29T09:14:06;5.80;70.60
12704;DHT22;6416;52.182;7.650;2023-01-29T09:16:31;5.80;70.60
12704;DHT22;6416;52.182;7.650;2023-01-29T09:18:57;5.80;70.60
12704;DHT22;6416;52.182;7.650;2023-01-29T09:21:22;5.80;70.60
12704;DHT22;6416;52.182;7.650;2023-01-29T09:23:48;5.90;70.80
12704;DHT22;6416;52.182;7.650;2023-01-29T09:26:13;5.90;70.80
12704;DHT22;6416;52.182;7.650;2023-01-29T09:28:39;5.90;70.90
12704;DHT22;6416;52.182;7.650;2023-01-29T09:31:04;5.90;70.70
12704;DHT22;6416;52.182;7.650;2023-01-29T09:33:30;6.00;70.80
12704;DHT22;6416;52.182;7.650;2023-01-29T09:35:55;6.00;70.80
12704;DHT22;6416;52.182;7.650;2023-01-29T09:38:21;6.00;70.80
12704;DHT22;6416;52.182;7.650;2023-01-29T09:43:56;6.00;70.20
12704;DHT22;6416;52.182;7.650;2023-01-29T09:46:27;6.10;70.80
12704;DHT22;6416;52.182;7.650;2023-01-29T09:49:06;6.10;70.90
12704;DHT22;6416;52.182;7.650;2023-01-29T09:51:39;6.10;70.70
12704;DHT22;6416;52.182;7.650;2023-01-29T09:54:13;6.10;70.80
12704;DHT22;6416;52.182;7.650;2023-01-29T09:56:41;6.10;70.70
12704;DHT22;6416;52.182;7.650;2023-01-29T09:59:11;6.20;71.00
12704;DHT22;6416;52.182;7.650;2023-01-29T10:01:46;6.20;70.90
12704;DHT22;6416;52.182;7.650;2023-01-29T10:25:22;6.50;70.80
12704;DHT22;6416;52.182;7.650;2023-01-29T10:27:57;6.50;71.10
12704;DHT22;6416;52.182;7.650;2023-01-29T10:30:38;6.50;70.50
12704;DHT22;6416;52.182;7.650;2023-01-29T10:33:10;6.50;70.40
12704;DHT22;6416;52.182;7.650;2023-01-29T10:35:41;6.50;70.40
12704;DHT22;6416;52.182;7.650;2023-01-29T10:38:37;6.50;70.20
12704;DHT22;6416;52.182;7.650;2023-01-29T10:52:00;6.50;69.90
12704;DHT22;6416;52.182;7.650;2023-01-29T10:54:36;6.50;70.10
12704;DHT22;6416;52.182;7.650;2023-01-29T10:57:23;6.60;70.60
12704;DHT22;6416;52.182;7.650;2023-01-29T10:59:57;6.60;70.10
12704;DHT22;6416;52.182;7.650;2023-01-29T11:02:25;6.60;70.00
12704;DHT22;6416;52.182;7.650;2023-01-29T11:04:51;6.60;70.10
12704;DHT22;6416;52.182;7.650;2023-01-29T11:07:18;6.60;70.00
12704;DHT22;6416;52.182;7.650;2023-01-29T11:10:10;6.60;70.10
12704;DHT22;6416;52.182;7.650;2023-01-29T11:12:39;6.70;69.10
12704;DHT22;6416;52.182;7.650;2023-01-29T11:15:17;6.60;69.80
12704;DHT22;6416;52.182;7.650;2023-01-29T11:18:09;6.60;69.60
12704;DHT22;6416;52.182;7.650;2023-01-29T11:20:35;6.70;69.10
12704;DHT22;6416;52.182;7.650;2023-01-29T11:23:00;6.70;70.00
12704;DHT22;6416;52.182;7.650;2023-01-29T11:25:26;6.70;69.90
12704;DHT22;6416;52.182;7.650;2023-01-29T11:27:54;6.70;69.90
12704;DHT22;6416;52.182;7.650;2023-01-29T11:30:36;6.70;69.80
12704;DHT22;6416;52.182;7.650;2023-01-29T11:35:31;6.70;69.80
12704;DHT22;6416;52.182;7.650;2023-01-29T11:38:07;6.70;70.00
12704;DHT22;6416;52.182;7.650;2023-01-29T11:40:39;6.70;69.40
12704;DHT22;6416;52.182;7.650;2023-01-29T11:45:56;6.80;69.40
12704;DHT22;6416;52.182;7.650;2023-01-29T11:48:41;6.80;70.00
12704;DHT22;6416;52.182;7.650;2023-01-29T11:51:10;6.80;69.60
12704;DHT22;6416;52.182;7.650;2023-01-29T11:53:42;6.80;69.80
12704;DHT22;6416;52.182;7.650;2023-01-29T11:58:54;6.80;69.20
12704;DHT22;6416;52.182;7.650;2023-01-29T12:01:37;6.90;69.90
12704;DHT22;6416;52.182;7.650;2023-01-29T12:04:18;6.90;68.90
12704;DHT22;6416;52.182;7.650;2023-01-29T12:06:46;6.90;69.20
12704;DHT22;6416;52.182;7.650;2023-01-29T12:09:17;6.90;69.50
12704;DHT22;6416;52.182;7.650;2023-01-29T12:11:44;6.90;69.20
12704;DHT22;6416;52.182;7.650;2023-01-29T12:14:30;6.90;69.40
12704;DHT22;6416;52.182;7.650;2023-01-29T12:17:21;6.90;68.90
12704;DHT22;6416;52.182;7.650;2023-01-29T12:19:58;6.90;68.60
12704;DHT22;6416;52.182;7.650;2023-01-29T12:22:41;6.90;68.60
12704;DHT22;6416;52.182;7.650;2023-01-29T12:25:37;6.90;68.40
12704;DHT22;6416;52.182;7.650;2023-01-29T12:40:14;7.00;68.80
12704;DHT22;6416;52.182;7.650;2023-01-29T12:42:49;7.00;69.30
12704;DHT22;6416;52.182;7.650;2023-01-29T12:45:21;7.00;69.20
12704;DHT22;6416;52.182;7.650;2023-01-29T12:47:56;7.00;69.10
12704;DHT22;6416;52.182;7.650;2023-01-29T12:50:31;7.00;69.20
12704;DHT22;6416;52.182;7.650;2023-01-29T12:53:05;7.00;68.70
12704;DHT22;6416;52.182;7.650;2023-01-29T12:55:46;7.00;69.10
12704;DHT22;6416;52.182;7.650;2023-01-29T12:58:46;7.00;69.10
12704;DHT22;6416;52.182;7.650;2023-01-29T13:01:14;7.00;68.30
12704;DHT22;6416;52.182;7.650;2023-01-29T13:06:37;7.10;69.00
12704;DHT22;6416;52.182;7.650;2023-01-29T13:09:07;7.10;69.20
12704;DHT22;6416;52.182;7.650;2023-01-29T13:12:23;7.10;69.20
12704;DHT22;6416;52.182;7.650;2023-01-29T13:14:53;7.10;68.90
12704;DHT22;6416;52.182;7.650;2023-01-29T13:17:39;7.10;68.60
12704;DHT22;6416;52.182;7.650;2023-01-29T13:20:28;7.10;68.40
12704;DHT22;6416;52.182;7.650;2023-01-29T13:22:58;7.10;68.50
12704;DHT22;6416;52.182;7.650;2023-01-29T13:25:25;7.10;68.70
12704;DHT22;6416;52.182;7.650;2023-01-29T13:27:50;7.10;69.00
12704;DHT22;6416;52.182;7.650;2023-01-29T13:30:30;7.10;68.90
12704;DHT22;6416;52.182;7.650;2023-01-29T13:32:58;7.10;69.70
12704;DHT22;6416;52.182;7.650;2023-01-29T13:35:25;7.10;69.10
12704;DHT22;6416;52.182;7.650;2023-01-29T13:37:52;7.10;69.00
12704;DHT22;6416;52.182;7.650;2023-01-29T13:40:23;7.10;69.00
12704;DHT22;6416;52.182;7.650;2023-01-29T13:42:50;7.00;68.80
12704;DHT22;6416;52.182;7.650;2023-01-29T13:47:48;7.10;68.90
12704;DHT22;6416;52.182;7.650;2023-01-29T13:50:37;7.10;69.30
12704;DHT22;6416;52.182;7.650;2023-01-29T13:53:05;7.10;69.00
12704;DHT22;6416;52.182;7.650;2023-01-29T13:55:33;7.10;69.10
12704;DHT22;6416;52.182;7.650;2023-01-29T13:58:06;7.00;69.30
12704;DHT22;6416;52.182;7.650;2023-01-29T14:08:01;7.10;69.20
12704;DHT22;6416;52.182;7.650;2023-01-29T14:10:29;7.10;69.00
12704;DHT22;6416;52.182;7.650;2023-01-29T14:15:33;7.00;68.90
12704;DHT22;6416;52.182;7.650;2023-01-29T14:18:03;7.00;69.10
12704;DHT22;6416;52.182;7.650;2023-01-29T14:20:36;7.00;68.80
12704;DHT22;6416;52.182;7.650;2023-01-29T14:23:03;7.00;69.10
12704;DHT22;6416;52.182;7.650;2023-01-29T14:25:36;7.00;69.00
12704;DHT22;6416;52.182;7.650;2023-01-29T14:28:03;7.00;69.80
12704;DHT22;6416;52.182;7.650;2023-01-29T14:30:38;7.00;69.20
12704;DHT22;6416;52.182;7.650;2023-01-29T14:33:05;7.00;69.20
12704;DHT22;6416;52.182;7.650;2023-01-29T14:35:48;7.00;69.40
12704;DHT22;6416;52.182;7.650;2023-01-29T14:38:15;7.00;68.90
12704;DHT22;6416;52.182;7.650;2023-01-29T14:40:44;7.00;69.10
12704;DHT22;6416;52.182;7.650;2023-01-29T14:43:19;7.00;69.10
12704;DHT22;6416;52.182;7.650;2023-01-29T14:45:46;7.00;68.60
12704;DHT22;6416;52.182;7.650;2023-01-29T14:48:37;7.00;69.10
12704;DHT22;6416;52.182;7.650;2023-01-29T14:51:08;7.00;68.60
12704;DHT22;6416;52.182;7.650;2023-01-29T14:56:49;6.90;68.80
12704;DHT22;6416;52.182;7.650;2023-01-29T14:59:25;6.90;68.80
12704;DHT22;6416;52.182;7.650;2023-01-29T15:02:00;6.90;69.10
12704;DHT22;6416;52.182;7.650;2023-01-29T15:04:40;6.90;69.20
12704;DHT22;6416;52.182;7.650;2023-01-29T15:10:03;6.90;69.10
12704;DHT22;6416;52.182;7.650;2023-01-29T15:12:55;6.80;68.50
12704;DHT22;6416;52.182;7.650;2023-01-29T15:15:49;6.80;68.90
12704;DHT22;6416;52.182;7.650;2023-01-29T15:21:08;6.80;69.10
12704;DHT22;6416;52.182;7.650;2023-01-29T15:23:34;6.80;69.20
12704;DHT22;6416;52.182;7.650;2023-01-29T15:26:22;6.80;69.50
12704;DHT22;6416;52.182;7.650;2023-01-29T15:28:56;6.80;69.10
12704;DHT22;6416;52.182;7.650;2023-01-29T15:31:22;6.80;69.40
12704;DHT22;6416;52.182;7.650;2023-01-29T15:33:50;6.70;69.30
12704;DHT22;6416;52.182;7.650;2023-01-29T15:36:28;6.70;69.10
12704;DHT22;6416;52.182;7.650;2023-01-29T15:39:20;6.70;69.20
12704;DHT22;6416;52.182;7.650;2023-01-29T15:41:46;6.70;69.00
12704;DHT22;6416;52.182;7.650;2023-01-29T15:44:23;6.70;69.30
12704;DHT22;6416;52.182;7.650;2023-01-29T15:46:58;6.70;69.30
12704;DHT22;6416;52.182;7.650;2023-01-29T15:49:28;6.60;69.40
12704;DHT22;6416;52.182;7.650;2023-01-29T15:51:56;6.60;69.40
12704;DHT22;6416;52.182;7.650;2023-01-29T15:54:23;6.60;69.40
12704;DHT22;6416;52.182;7.650;2023-01-29T15:56:51;6.60;69.10
12704;DHT22;6416;52.182;7.650;2023-01-29T15:59:22;6.60;69.10
12704;DHT22;6416;52.182;7.650;2023-01-29T16:01:49;6.60;69.10
12704;DHT22;6416;52.182;7.650;2023-01-29T16:04:25;6.60;69.20
12704;DHT22;6416;52.182;7.650;2023-01-29T16:06:52;6.60;69.20
12704;DHT22;6416;52.182;7.650;2023-01-29T16:09:20;6.50;69.10
12704;DHT22;6416;52.182;7.650;2023-01-29T16:11:47;6.50;69.10
12704;DHT22;6416;52.182;7.650;2023-01-29T16:14:14;6.50;69.10
12704;DHT22;6416;52.182;7.650;2023-01-29T16:16:41;6.50;69.30
12704;DHT22;6416;52.182;7.650;2023-01-29T16:19:27;6.50;69.20
12704;DHT22;6416;52.182;7.650;2023-01-29T16:21:59;6.50;69.10
12704;DHT22;6416;52.182;7.650;2023-01-29T16:24:25;6.40;69.10
12704;DHT22;6416;52.182;7.650;2023-01-29T16:26:58;6.40;69.20
12704;DHT22;6416;52.182;7.650;2023-01-29T16:29:29;6.40;69.30
12704;DHT22;6416;52.182;7.650;2023-01-29T16:31:56;6.40;69.40
12704;DHT22;6416;52.182;7.650;2023-01-29T16:34:37;6.40;69.70
12704;DHT22;6416;52.182;7.650;2023-01-29T16:37:25;6.40;69.40
12704;DHT22;6416;52.182;7.650;2023-01-29T16:39:52;6.40;69.40
12704;DHT22;6416;52.182;7.650;2023-01-29T16:42:18;6.40;69.90
12704;DHT22;6416;52.182;7.650;2023-01-29T16:50:31;6.10;70.60
12704;DHT22;6416;52.182;7.650;2023-01-29T16:53:03;6.20;70.20
12704;DHT22;6416;52.182;7.650;2023-01-29T16:55:41;6.30;70.30
12704;DHT22;6416;52.182;7.650;2023-01-29T16:58:21;6.30;70.30
12704;DHT22;6416;52.182;7.650;2023-01-29T17:00:52;6.30;70.00
12704;DHT22;6416;52.182;7.650;2023-01-29T17:03:18;6.30;70.10
12704;DHT22;6416;52.182;7.650;2023-01-29T17:05:44;6.30;70.20
12704;DHT22;6416;52.182;7.650;2023-01-29T17:08:26;6.30;70.10
12704;DHT22;6416;52.182;7.650;2023-01-29T17:10:53;6.30;70.20
12704;DHT22;6416;52.182;7.650;2023-01-29T17:16:12;6.30;70.50
12704;DHT22;6416;52.182;7.650;2023-01-29T17:18:38;6.20;70.50
12704;DHT22;6416;52.182;7.650;2023-01-29T17:21:03;6.20;70.70
12704;DHT22;6416;52.182;7.650;2023-01-29T17:23:29;6.20;70.70
12704;DHT22;6416;52.182;7.650;2023-01-29T17:25:54;6.20;70.80
12704;DHT22;6416;52.182;7.650;2023-01-29T17:28:20;6.20;70.80
12704;DHT22;6416;52.182;7.650;2023-01-29T17:30:45;6.20;70.90
12704;DHT22;6416;52.182;7.650;2023-01-29T17:35:37;6.20;71.00
12704;DHT22;6416;52.182;7.650;2023-01-29T17:38:03;6.20;71.10
12704;DHT22;6416;52.182;7.650;2023-01-29T17:43:00;6.20;71.30
12704;DHT22;6416;52.182;7.650;2023-01-29T17:45:25;6.20;71.50
12704;DHT22;6416;52.182;7.650;2023-01-29T17:47:50;6.20;71.40
12704;DHT22;6416;52.182;7.650;2023-01-29T17:50:21;6.20;71.40
12704;DHT22;6416;52.182;7.650;2023-01-29T17:52:47;6.20;71.40
12704;DHT22;6416;52.182;7.650;2023-01-29T17:55:13;6.20;71.30
12704;DHT22;6416;52.182;7.650;2023-01-29T17:57:38;6.20;71.40
12704;DHT22;6416;52.182;7.650;2023-01-29T18:00:24;6.20;71.40
12704;DHT22;6416;52.182;7.650;2023-01-29T18:02:50;6.20;71.20
12704;DHT22;6416;52.182;7.650;2023-01-29T18:05:16;6.20;71.50
12704;DHT22;6416;52.182;7.650;2023-01-29T18:07:44;6.20;71.40
12704;DHT22;6416;52.182;7.650;2023-01-29T18:10:16;6.20;71.50
12704;DHT22;6416;52.182;7.650;2023-01-29T18:12:42;6.20;71.40
12704;DHT22;6416;52.182;7.650;2023-01-29T18:15:08;6.20;71.50
12704;DHT22;6416;52.182;7.650;2023-01-29T18:17:34;6.20;71.60
12704;DHT22;6416;52.182;7.650;2023-01-29T18:20:00;6.20;71.60
12704;DHT22;6416;52.182;7.650;2023-01-29T18:22:26;6.20;71.60
12704;DHT22;6416;52.182;7.650;2023-01-29T18:24:51;6.20;71.60
12704;DHT22;6416;52.182;7.650;2023-01-29T18:27:17;6.20;71.60
12704;DHT22;6416;52.182;7.650;2023-01-29T18:29:42;6.20;71.60
12704;DHT22;6416;52.182;7.650;2023-01-29T18:32:08;6.20;71.60